Time;durP1;ratioP1;P1;durP2;ratioP2;P2;SDS_P1;SDS_P2;PMS_P1;PMS_P2;Temp;Humidity;BMP_temperature;BMP_pressure;BME280_temperature;BME280_humidity;BME280_pressure;Samples;Min_cycle;Max_cycle;Signal;HPM_P1;HPM_P2
2023/07/09 00:49:58;;;;;;;6.78;4.15;;;25.80;99.90;;;;;;4673954;25;20212;-96
2023/07/09 00:52:56;;;;;;;;;;;;;;;;;;;;;
2023/07/09 00:56:11;;;;;;;;;;;;;;;;;;;;;
2023/07/09 00:58:43;;;;;;;12.98;4.25;;;25.80;99.90;;;;;;4753025;24;20168;-95
2023/07/09 01:01:09;;;;;;;11.10;4.10;;;26.00;99.90;;;;;;4922221;23;20162;-94
2023/07/09 01:03:16;;;;;;;8.60;4.28;;;26.40;99.90;;;;;;5015877;23;20231;-94
2023/07/09 01:05:27;;;;;;;11.35;4.53;;;26.80;99.90;;;;;;5099807;23;20416;-94
2023/07/09 01:07:31;;;;;;;7.80;4.38;;;27.10;99.90;;;;;;5083949;23;20153;-96
2023/07/09 01:09:40;;;;;;;9.88;4.97;;;27.20;99.90;;;;;;5083758;23;20154;-96
2023/07/09 01:11:43;;;;;;;10.88;6.10;;;27.30;99.90;;;;;;5083402;23;20157;-96
2023/07/09 01:13:46;;;;;;;12.13;6.88;;;27.20;99.90;;;;;;5082409;23;20154;-96
2023/07/09 01:15:48;;;;;;;12.40;6.05;;;27.00;99.90;;;;;;5083327;23;20145;-94
2023/07/09 01:17:53;;;;;;;24.15;6.32;;;26.80;99.90;;;;;;5086724;23;20157;-94
2023/07/09 01:19:59;;;;;;;18.98;6.28;;;26.80;99.90;;;;;;5109929;23;20149;-94
2023/07/09 01:22:05;;;;;;;15.48;6.65;;;26.70;99.90;;;;;;5081745;23;20185;-95
2023/07/09 01:24:36;;;;;;;13.23;5.82;;;26.60;99.90;;;;;;5085400;23;20169;-94
2023/07/09 01:26:38;;;;;;;17.73;5.78;;;26.50;99.90;;;;;;5082002;23;20185;-94
2023/07/09 01:28:45;;;;;;;10.88;5.90;;;26.40;99.90;;;;;;5083102;23;20180;-94
2023/07/09 01:30:56;;;;;;;9.75;5.13;;;26.30;99.90;;;;;;5087744;23;20141;-96
2023/07/09 01:33:00;;;;;;;13.70;5.68;;;26.20;99.90;;;;;;5084197;23;20220;-94
2023/07/09 01:35:17;;;;;;;10.48;5.40;;;26.20;99.90;;;;;;5109357;23;20139;-94
2023/07/09 01:37:42;;;;;;;15.88;5.88;;;26.20;99.90;;;;;;5088858;23;20181;-94
2023/07/09 01:40:20;;;;;;;13.57;5.35;;;26.10;99.90;;;;;;5104670;23;20235;-95
2023/07/09 01:42:50;;;;;;;10.15;5.50;;;25.70;99.90;;;;;;5087966;23;20177;-95
2023/07/09 01:44:57;;;;;;;13.13;5.72;;;25.30;99.90;;;;;;5084396;23;20144;-94
2023/07/09 01:47:03;;;;;;;10.55;5.60;;;25.50;99.90;;;;;;5085037;23;20145;-92
2023/07/09 01:49:29;;;;;;;9.07;5.25;;;25.40;99.90;;;;;;5118210;23;20194;-96
2023/07/09 01:52:04;;;;;;;;;;;;;;;;;;;;;
2023/07/09 01:58:49;;;;;;;8.05;4.88;;;25.10;99.90;;;;;;5087360;23;20152;-93
2023/07/09 02:01:29;;;;;;;;;;;;;;;;;;;;;
2023/07/09 02:07:38;;;;;;;;;;;;;;;;;;;;;
2023/07/09 02:10:22;;;;;;;9.57;4.72;;;24.90;99.90;;;;;;5003789;23;20151;-94
2023/07/09 02:16:20;;;;;;;;;;;;;;;;;;;;;
2023/07/09 02:19:31;;;;;;;6.35;4.13;;;24.90;99.90;;;;;;5086892;23;20493;-96
2023/07/09 02:22:00;;;;;;;7.65;4.05;;;24.90;99.90;;;;;;5104444;23;20161;-96
2023/07/09 02:24:48;;;;;;;9.50;4.85;;;24.80;99.90;;;;;;5103611;23;20164;-92
2023/07/09 02:27:29;;;;;;;;;;;;;;;;;;;;;
2023/07/09 08:18:51;;;;;;;28.90;21.08;;;34.90;99.90;;;;;;5135019;23;20191;-93
2023/07/09 09:59:03;;;;;;;20.05;12.40;;;35.00;99.90;;;;;;5100693;23;20218;-92
2023/07/09 12:22:57;;;;;;;12.68;5.00;;;27.60;99.90;;;;;;5142580;23;20213;-93
2023/07/09 12:24:59;;;;;;;9.57;4.15;;;27.40;99.90;;;;;;5093345;23;20153;-92
2023/07/09 12:27:38;;;;;;;;;;;;;;;;;;;;;
2023/07/09 14:00:59;;;;;;;12.95;7.00;;;26.70;99.90;;;;;;5137641;23;20265;-93
2023/07/09 14:12:10;;;;;;;15.30;7.53;;;26.40;99.90;;;;;;5046272;23;20154;-93
2023/07/09 14:14:21;;;;;;;14.30;7.20;;;26.60;99.90;;;;;;5067746;23;20723;-93
2023/07/09 14:16:22;;;;;;;17.98;8.40;;;26.50;99.90;;;;;;5069775;23;20160;-93
2023/07/09 14:18:23;;;;;;;17.38;8.52;;;26.40;99.90;;;;;;5069978;23;20209;-93
2023/07/09 14:20:24;;;;;;;22.35;8.25;;;26.30;99.90;;;;;;5070077;23;20669;-93
2023/07/09 14:22:35;;;;;;;19.30;8.35;;;26.30;99.90;;;;;;5069751;23;20150;-94
2023/07/09 14:24:36;;;;;;;21.02;9.15;;;26.30;99.90;;;;;;5045546;23;20153;-93
2023/07/09 14:26:36;;;;;;;15.85;8.63;;;26.40;99.90;;;;;;5045726;23;20158;-93
2023/07/09 14:28:38;;;;;;;19.60;8.25;;;26.50;99.90;;;;;;5045404;23;20222;-92
2023/07/09 14:30:41;;;;;;;19.83;8.80;;;26.30;99.90;;;;;;5045577;23;20154;-93
2023/07/09 14:32:42;;;;;;;20.05;9.25;;;26.70;99.90;;;;;;5046010;23;20597;-92
2023/07/09 14:34:43;;;;;;;22.38;8.32;;;27.10;99.90;;;;;;5069567;23;20146;-92
2023/07/09 14:36:44;;;;;;;17.55;8.00;;;27.30;99.90;;;;;;5045355;23;20237;-94
2023/07/09 14:38:44;;;;;;;14.15;8.02;;;27.10;99.90;;;;;;5045516;23;20574;-92
2023/07/09 14:40:47;;;;;;;15.20;8.55;;;27.30;99.90;;;;;;5045742;23;20170;-91
2023/07/09 14:42:49;;;;;;;15.75;8.20;;;27.40;99.90;;;;;;5069214;23;20329;-92
2023/07/09 14:44:50;;;;;;;14.60;7.50;;;27.20;99.90;;;;;;5045251;23;20205;-91
2023/07/09 14:46:52;;;;;;;20.63;8.13;;;27.30;99.90;;;;;;5069534;23;20153;-92
2023/07/09 14:48:53;;;;;;;14.82;8.38;;;27.20;99.90;;;;;;5069812;23;20169;-93
2023/07/09 14:50:53;;;;;;;16.90;7.65;;;27.30;99.90;;;;;;5045419;23;20170;-93
2023/07/09 14:52:54;;;;;;;15.80;7.43;;;27.40;99.90;;;;;;5045301;23;20204;-92
2023/07/09 14:54:55;;;;;;;16.08;6.97;;;27.30;99.90;;;;;;5046335;23;20169;-95
2023/07/09 14:56:58;;;;;;;17.33;7.15;;;27.50;99.90;;;;;;5073498;23;20145;-94
2023/07/09 14:58:58;;;;;;;15.50;7.85;;;27.80;99.90;;;;;;5072462;23;20565;-91
2023/07/09 15:00:59;;;;;;;16.63;7.88;;;28.30;99.90;;;;;;5070507;23;20157;-93
2023/07/09 15:03:00;;;;;;;17.05;7.35;;;28.70;99.90;;;;;;5070712;23;20644;-92
2023/07/09 15:05:03;;;;;;;15.93;7.65;;;28.40;99.90;;;;;;5070218;23;20146;-94
2023/07/09 15:07:08;;;;;;;20.02;7.82;;;27.40;99.90;;;;;;5045511;23;20561;-91
2023/07/09 15:09:09;;;;;;;18.08;8.20;;;27.40;99.90;;;;;;5045427;23;20170;-93
2023/07/09 15:11:10;;;;;;;18.80;8.00;;;27.30;99.90;;;;;;5056919;23;20166;-92
2023/07/09 15:13:19;;;;;;;15.00;8.10;;;27.50;99.90;;;;;;5068801;23;20152;-92
2023/07/09 15:15:28;;;;;;;19.55;8.65;;;27.90;99.90;;;;;;5088008;23;20145;-93
2023/07/09 15:17:29;;;;;;;14.15;6.93;;;27.70;99.90;;;;;;5073181;23;20643;-94
2023/07/09 15:19:30;;;;;;;19.45;8.45;;;27.70;99.90;;;;;;5071982;23;20157;-92
2023/07/09 15:21:31;;;;;;;18.83;8.05;;;27.50;99.90;;;;;;5095235;23;20208;-93
2023/07/09 15:23:35;;;;;;;18.80;8.63;;;27.60;99.90;;;;;;5095168;23;20192;-92
2023/07/09 15:25:36;;;;;;;21.40;10.15;;;28.00;99.90;;;;;;5070549;23;20149;-93
2023/07/09 15:27:37;;;;;;;21.35;11.30;;;28.00;99.90;;;;;;5071760;23;20228;-92
2023/07/09 15:29:39;;;;;;;27.50;12.27;;;27.80;99.90;;;;;;5071578;23;20271;-93
2023/07/09 15:31:39;;;;;;;22.92;13.57;;;27.60;99.90;;;;;;5072365;23;20197;-92
2023/07/09 15:33:40;;;;;;;25.40;13.55;;;27.50;99.90;;;;;;5072892;23;20150;-91
2023/07/09 15:35:42;;;;;;;26.60;14.43;;;27.30;99.90;;;;;;5071656;23;20217;-92
2023/07/09 15:37:44;;;;;;;26.67;15.68;;;27.40;99.90;;;;;;5074330;23;20184;-92
2023/07/09 15:39:45;;;;;;;22.77;15.18;;;27.20;99.90;;;;;;5096830;23;20596;-95
2023/07/09 15:41:46;;;;;;;26.08;14.65;;;27.00;99.90;;;;;;5101227;23;20184;-91
2023/07/09 15:43:47;;;;;;;21.63;13.45;;;26.80;99.90;;;;;;5096530;23;20192;-90
2023/07/09 15:45:51;;;;;;;19.20;12.95;;;26.50;99.90;;;;;;5073551;23;20507;-91
2023/07/09 15:47:54;;;;;;;22.13;11.82;;;26.60;99.90;;;;;;5096874;23;20173;-92
2023/07/09 15:49:54;;;;;;;20.27;12.10;;;26.60;99.90;;;;;;5097146;23;20175;-91
2023/07/09 15:51:55;;;;;;;17.60;11.00;;;26.60;99.90;;;;;;5097369;23;20596;-94
2023/07/09 15:53:57;;;;;;;22.15;11.20;;;26.80;99.90;;;;;;5072733;23;20160;-93
2023/07/09 15:56:15;;;;;;;18.17;10.65;;;26.80;99.90;;;;;;5073187;23;20200;-90
2023/07/09 15:58:25;;;;;;;20.13;10.82;;;26.70;99.90;;;;;;5072028;23;20565;-93
2023/07/09 16:00:28;;;;;;;18.92;11.75;;;26.60;99.90;;;;;;5100334;23;20156;-92
2023/07/09 16:02:29;;;;;;;22.27;11.65;;;26.40;99.90;;;;;;5098420;23;20155;-93
2023/07/09 16:04:30;;;;;;;16.90;11.13;;;26.50;99.90;;;;;;5072460;23;20636;-92
2023/07/09 16:06:31;;;;;;;19.38;11.88;;;26.60;99.90;;;;;;5074440;23;20156;-92
2023/07/09 16:08:32;;;;;;;21.15;11.05;;;26.50;99.90;;;;;;5073040;23;20177;-91
2023/07/09 16:10:33;;;;;;;22.38;10.43;;;26.40;99.90;;;;;;5099921;23;20232;-89
2023/07/09 16:12:33;;;;;;;19.92;10.63;;;26.40;99.90;;;;;;5097555;23;20240;-91
2023/07/09 16:14:34;;;;;;;16.30;10.38;;;26.10;99.90;;;;;;5072300;23;20146;-94
2023/07/09 16:16:36;;;;;;;15.38;9.98;;;26.40;99.90;;;;;;5096726;23;20157;-91
2023/07/09 16:18:37;;;;;;;17.95;9.23;;;26.40;99.90;;;;;;5071180;23;20174;-92
2023/07/09 16:20:38;;;;;;;18.05;9.20;;;26.50;99.90;;;;;;5074553;23;20158;-93
2023/07/09 16:22:43;;;;;;;20.15;8.93;;;26.20;99.90;;;;;;5070502;23;22048;-91
2023/07/09 16:24:43;;;;;;;16.65;9.70;;;26.40;99.90;;;;;;5051180;23;20170;-91
2023/07/09 16:26:44;;;;;;;17.08;10.18;;;26.70;99.90;;;;;;5098442;23;20172;-90
2023/07/09 16:28:45;;;;;;;17.05;10.15;;;26.60;99.90;;;;;;5097490;23;20172;-92
2023/07/09 16:30:54;;;;;;;16.35;10.88;;;26.70;99.90;;;;;;5074735;23;20153;-92
2023/07/09 16:33:02;;;;;;;21.80;11.02;;;26.70;99.90;;;;;;5098578;23;20160;-93
2023/07/09 16:35:03;;;;;;;16.67;9.68;;;26.70;99.90;;;;;;5075892;23;20129;-91
2023/07/09 16:37:14;;;;;;;15.82;10.30;;;26.80;99.90;;;;;;5073508;23;20232;-90
2023/07/09 16:39:46;;;;;;;15.82;9.80;;;26.70;99.90;;;;;;5083658;23;20169;-93
2023/07/09 16:41:47;;;;;;;15.75;9.52;;;26.50;99.90;;;;;;5084727;23;20145;-91
2023/07/09 16:43:48;;;;;;;15.25;8.90;;;26.50;99.90;;;;;;5057064;23;20503;-94
2023/07/09 16:45:49;;;;;;;14.32;9.05;;;26.70;99.90;;;;;;5098973;23;20237;-91
2023/07/09 16:47:50;;;;;;;14.57;8.55;;;26.60;99.90;;;;;;5100159;23;20208;-92
2023/07/09 16:49:51;;;;;;;15.85;8.25;;;26.70;99.90;;;;;;5097709;23;20173;-93
2023/07/09 16:51:52;;;;;;;16.60;8.20;;;26.60;99.90;;;;;;5075506;23;20186;-92
2023/07/09 16:53:55;;;;;;;10.90;7.05;;;26.60;99.90;;;;;;5096648;23;20157;-93
2023/07/09 16:55:56;;;;;;;13.95;7.07;;;26.50;99.90;;;;;;5074785;23;20153;-92
2023/07/09 16:57:59;;;;;;;10.05;6.50;;;26.50;99.90;;;;;;5073765;23;20513;-91
2023/07/09 17:00:21;;;;;;;12.18;6.30;;;26.50;99.90;;;;;;5076858;23;20138;-90
2023/07/09 17:02:32;;;;;;;10.00;5.68;;;26.70;99.90;;;;;;5077548;23;20157;-92
2023/07/09 17:04:33;;;;;;;7.90;4.00;;;26.40;99.90;;;;;;5076472;23;20213;-92
2023/07/09 17:06:35;;;;;;;10.18;3.95;;;26.40;99.90;;;;;;5102563;23;20160;-95
2023/07/09 17:08:36;;;;;;;10.30;4.22;;;26.30;99.90;;;;;;5079946;23;20208;-93
2023/07/09 17:10:39;;;;;;;8.88;3.58;;;26.20;99.90;;;;;;5107625;23;20153;-91
2023/07/09 17:12:44;;;;;;;8.73;3.30;;;25.90;99.90;;;;;;5079571;23;20137;-91
2023/07/09 17:14:45;;;;;;;9.10;3.60;;;25.60;99.90;;;;;;5107336;23;20152;-92
2023/07/09 17:16:45;;;;;;;9.95;3.45;;;25.60;99.90;;;;;;5084179;23;20294;-91
2023/07/09 17:18:47;;;;;;;9.60;3.72;;;25.80;99.90;;;;;;5106135;23;20282;-95
2023/07/09 17:20:50;;;;;;;8.50;3.47;;;25.60;99.90;;;;;;5077831;23;20130;-91
2023/07/09 17:22:54;;;;;;;9.90;3.03;;;25.60;99.90;;;;;;5078799;23;20193;-90
2023/07/09 17:24:55;;;;;;;7.15;3.00;;;25.40;99.90;;;;;;5098582;23;20149;-92
2023/07/09 17:26:57;;;;;;;9.32;3.50;;;25.30;99.90;;;;;;5097891;23;20204;-90
2023/07/09 17:28:58;;;;;;;7.15;3.85;;;25.10;99.90;;;;;;5102603;23;20153;-91
2023/07/09 17:31:00;;;;;;;8.80;4.05;;;24.80;99.90;;;;;;5086675;23;20180;-92
2023/07/09 17:33:01;;;;;;;8.88;3.72;;;24.90;99.90;;;;;;5089074;23;20146;-94
2023/07/09 17:35:01;;;;;;;12.55;4.38;;;25.30;99.90;;;;;;5107248;23;20671;-91
2023/07/09 17:37:02;;;;;;;11.57;3.90;;;25.20;99.90;;;;;;5080224;23;20154;-92
2023/07/09 17:39:03;;;;;;;13.90;4.15;;;24.90;99.90;;;;;;5079287;23;20165;-95
2023/07/09 17:41:04;;;;;;;10.35;3.72;;;24.80;99.90;;;;;;5105081;23;20137;-89
2023/07/09 17:43:32;;;;;;;9.70;3.85;;;24.40;99.90;;;;;;5079711;23;20688;-96
2023/07/09 17:45:32;;;;;;;10.80;3.58;;;24.30;99.90;;;;;;5082328;23;20142;-91
2023/07/09 17:47:33;;;;;;;6.68;3.03;;;24.40;99.90;;;;;;5080944;23;20160;-90
2023/07/09 17:49:34;;;;;;;9.15;2.72;;;24.00;99.90;;;;;;5080930;23;20150;-92
2023/07/09 17:51:34;;;;;;;11.88;3.10;;;24.00;99.90;;;;;;5082338;23;20192;-92
2023/07/09 17:53:36;;;;;;;8.32;2.78;;;24.00;99.90;;;;;;5080305;23;20232;-91
2023/07/09 17:55:37;;;;;;;7.22;2.40;;;24.20;99.90;;;;;;5106874;23;20188;-92
2023/07/09 17:57:41;;;;;;;9.95;2.30;;;24.30;99.90;;;;;;5107695;23;20173;-92
2023/07/09 17:59:42;;;;;;;7.40;2.50;;;24.20;99.90;;;;;;5078643;23;20153;-93
2023/07/09 18:01:47;;;;;;;5.93;2.25;;;24.10;99.90;;;;;;5111156;23;20149;-93
2023/07/09 18:03:48;;;;;;;7.70;2.42;;;24.10;99.90;;;;;;5081281;23;20260;-91
2023/07/09 18:05:49;;;;;;;5.60;2.20;;;24.20;99.90;;;;;;5080729;23;20189;-90
2023/07/09 18:07:50;;;;;;;9.48;2.50;;;24.00;99.90;;;;;;5082108;23;20178;-94
2023/07/09 18:09:52;;;;;;;7.35;2.30;;;24.10;99.90;;;;;;5079349;23;20446;-91
2023/07/09 18:11:54;;;;;;;9.75;2.75;;;24.20;99.90;;;;;;5078464;23;20153;-90
2023/07/09 18:13:55;;;;;;;9.30;2.45;;;24.00;99.90;;;;;;5103176;23;20604;-93
2023/07/09 18:15:56;;;;;;;15.40;2.95;;;23.80;99.90;;;;;;5107654;23;20156;-90
2023/07/09 18:17:57;;;;;;;6.57;2.65;;;24.00;99.90;;;;;;5084014;23;20184;-90
2023/07/09 18:19:59;;;;;;;7.40;2.65;;;24.00;99.90;;;;;;5103520;23;20157;-89
2023/07/09 18:22:20;;;;;;;8.10;2.58;;;23.90;99.90;;;;;;5079883;23;20161;-92
2023/07/09 18:24:22;;;;;;;7.50;2.50;;;23.70;99.90;;;;;;5083601;23;20184;-89
2023/07/09 18:26:23;;;;;;;15.23;2.63;;;23.50;99.90;;;;;;5102445;23;20152;-90
2023/07/09 18:28:32;;;;;;;11.65;2.70;;;23.40;99.90;;;;;;5107926;23;20177;-91
2023/07/09 18:30:35;;;;;;;9.02;2.45;;;23.30;99.90;;;;;;5105708;23;20164;-90
2023/07/09 18:32:36;;;;;;;6.70;2.20;;;23.30;99.90;;;;;;5106165;23;20240;-96
2023/07/09 18:34:36;;;;;;;6.82;2.28;;;23.10;99.90;;;;;;5079742;23;20141;-96
2023/07/09 18:36:37;;;;;;;10.25;2.40;;;23.30;99.90;;;;;;5080990;23;20154;-94
2023/07/09 18:38:38;;;;;;;6.70;2.13;;;23.40;99.90;;;;;;5079724;23;20192;-92
2023/07/09 18:41:00;;;;;;;7.43;2.00;;;23.60;99.90;;;;;;5081647;23;20172;-91
2023/07/09 18:43:01;;;;;;;9.02;2.33;;;23.50;99.90;;;;;;5078962;23;20189;-90
2023/07/09 18:45:02;;;;;;;6.40;1.60;;;23.40;99.90;;;;;;5081653;23;20160;-92
2023/07/09 18:47:11;;;;;;;7.82;2.30;;;23.20;99.90;;;;;;5081577;23;20209;-91
2023/07/09 18:49:12;;;;;;;7.65;2.10;;;23.10;99.90;;;;;;5102472;23;20231;-91
2023/07/09 18:51:20;;;;;;;8.40;1.90;;;23.00;99.90;;;;;;5078494;23;20134;-90
2023/07/09 18:53:27;;;;;;;10.63;2.53;;;23.10;99.90;;;;;;5106699;23;20152;-95
2023/07/09 18:55:33;;;;;;;6.60;1.88;;;23.20;99.90;;;;;;5107870;23;20155;-91
2023/07/09 18:57:34;;;;;;;11.27;2.10;;;23.00;99.90;;;;;;5104099;23;20212;-96
2023/07/09 18:59:35;;;;;;;13.52;2.33;;;23.00;99.90;;;;;;5081813;23;20150;-92
2023/07/09 19:01:51;;;;;;;9.82;2.20;;;22.90;99.90;;;;;;5105126;23;20157;-91
2023/07/09 19:03:52;;;;;;;8.75;2.13;;;22.80;99.90;;;;;;5109073;23;20195;-92
2023/07/09 19:05:54;;;;;;;8.95;2.30;;;22.60;99.90;;;;;;5109790;23;20152;-94
2023/07/09 19:08:15;;;;;;;9.25;1.80;;;22.60;99.90;;;;;;5106481;23;20169;-93
2023/07/09 19:10:28;;;;;;;8.20;1.88;;;22.50;99.90;;;;;;5109210;23;20180;-93
2023/07/09 19:12:28;;;;;;;11.80;2.22;;;22.50;99.90;;;;;;5085548;23;20138;-93
2023/07/09 19:14:29;;;;;;;6.20;1.85;;;22.50;99.90;;;;;;5108912;23;20201;-94
2023/07/09 19:16:30;;;;;;;5.93;1.95;;;22.30;99.90;;;;;;5107231;23;20148;-95
2023/07/09 19:18:36;;;;;;;11.55;2.20;;;22.40;99.90;;;;;;5105530;23;20196;-95
2023/07/09 19:20:37;;;;;;;8.30;2.08;;;22.50;99.90;;;;;;5078429;23;20158;-95
2023/07/09 19:22:37;;;;;;;9.25;1.90;;;22.70;99.90;;;;;;5103965;23;20232;-91
2023/07/09 19:24:46;;;;;;;5.57;1.70;;;22.70;99.90;;;;;;5078767;23;20192;-90
2023/07/09 19:26:48;;;;;;;10.02;2.17;;;22.70;99.90;;;;;;5076639;23;20505;-91
2023/07/09 19:28:49;;;;;;;9.57;2.05;;;22.60;99.90;;;;;;5077580;23;20179;-91
2023/07/09 19:30:52;;;;;;;6.63;2.15;;;22.70;99.90;;;;;;5075381;23;20153;-90
2023/07/09 19:32:57;;;;;;;9.07;2.05;;;22.80;99.90;;;;;;5105586;23;20149;-90
2023/07/09 19:34:58;;;;;;;7.50;2.30;;;22.90;99.90;;;;;;5105454;23;20644;-92
2023/07/09 19:37:04;;;;;;;8.27;2.13;;;22.90;99.90;;;;;;5100486;23;20145;-91
2023/07/09 19:39:35;;;;;;;11.93;2.30;;;22.70;99.90;;;;;;5075879;23;20256;-91
2023/07/09 19:41:35;;;;;;;11.00;2.28;;;22.70;99.90;;;;;;5074985;23;20157;-93
2023/07/09 19:43:36;;;;;;;13.68;2.13;;;23.10;99.90;;;;;;5105869;23;20224;-91
2023/07/09 19:45:40;;;;;;;9.25;2.40;;;23.10;99.90;;;;;;5102928;23;20208;-91
2023/07/09 19:47:42;;;;;;;7.45;2.20;;;23.20;99.90;;;;;;5074358;23;20529;-90
2023/07/09 19:49:43;;;;;;;15.13;2.25;;;23.20;99.90;;;;;;5078079;23;20150;-89
2023/07/09 19:51:44;;;;;;;8.27;1.67;;;23.20;99.90;;;;;;5055509;23;20186;-92
2023/07/09 19:53:44;;;;;;;6.32;1.98;;;22.80;99.90;;;;;;5074326;23;20186;-89
2023/07/09 19:55:46;;;;;;;11.27;1.95;;;22.80;99.90;;;;;;5075269;23;20529;-90
2023/07/09 19:57:49;;;;;;;11.27;2.05;;;22.70;99.90;;;;;;5097423;23;20156;-92
2023/07/09 19:59:50;;;;;;;9.60;1.98;;;22.40;99.90;;;;;;5074180;23;20158;-95
2023/07/09 20:01:51;;;;;;;10.23;1.83;;;22.40;99.90;;;;;;5072576;23;20177;-90
2023/07/09 20:03:52;;;;;;;11.18;2.40;;;22.60;99.90;;;;;;5098971;23;20250;-92
2023/07/09 20:05:53;;;;;;;9.18;2.45;;;22.80;99.90;;;;;;5096693;23;20221;-90
2023/07/09 20:07:56;;;;;;;12.02;2.35;;;22.90;99.90;;;;;;5074701;23;20640;-94
2023/07/09 20:09:57;;;;;;;7.15;2.42;;;22.70;99.90;;;;;;5076786;23;20165;-91
2023/07/09 20:12:00;;;;;;;10.00;2.25;;;22.40;99.90;;;;;;5098565;23;20566;-91
2023/07/09 20:14:00;;;;;;;9.38;2.65;;;22.40;99.90;;;;;;5077041;23;20173;-91
2023/07/09 20:16:01;;;;;;;8.13;2.50;;;22.30;99.90;;;;;;5075604;23;20149;-91
2023/07/09 20:18:12;;;;;;;9.15;2.25;;;22.50;99.90;;;;;;5073978;23;20173;-91
2023/07/09 20:20:14;;;;;;;10.45;2.40;;;22.40;99.90;;;;;;5073384;23;20160;-91
2023/07/09 20:22:21;;;;;;;4.70;1.58;;;22.30;99.90;;;;;;5098478;23;20153;-91
2023/07/09 20:24:22;;;;;;;7.85;1.95;;;22.30;99.90;;;;;;5073162;23;20195;-91
2023/07/09 20:26:23;;;;;;;6.63;1.85;;;22.20;99.90;;;;;;5071820;23;20146;-92
2023/07/09 20:28:29;;;;;;;6.85;1.85;;;22.00;99.90;;;;;;5076753;23;20532;-90
2023/07/09 20:30:30;;;;;;;5.07;1.70;;;21.80;99.90;;;;;;5122098;23;20152;-91
2023/07/09 20:32:30;;;;;;;3.90;1.88;;;22.20;99.90;;;;;;5075261;23;20141;-92
2023/07/09 20:34:31;;;;;;;7.15;1.83;;;22.30;99.90;;;;;;5073758;23;20154;-90
2023/07/09 20:36:33;;;;;;;7.03;1.98;;;22.10;99.90;;;;;;5073369;23;20577;-92
2023/07/09 20:38:35;;;;;;;7.20;1.67;;;21.90;99.90;;;;;;5097634;23;20574;-90
2023/07/09 20:40:36;;;;;;;6.93;1.90;;;22.00;99.90;;;;;;5096384;23;20149;-91
2023/07/09 20:42:37;;;;;;;10.38;2.00;;;22.10;99.90;;;;;;5073897;23;20152;-90
2023/07/09 20:44:38;;;;;;;6.90;1.67;;;22.10;99.90;;;;;;5072829;23;20164;-92
2023/07/09 20:46:41;;;;;;;8.48;1.80;;;21.80;99.90;;;;;;5074401;23;20158;-95
2023/07/09 20:48:41;;;;;;;7.15;1.85;;;21.80;99.90;;;;;;5095729;23;20242;-91
2023/07/09 20:50:42;;;;;;;5.78;1.73;;;21.50;99.90;;;;;;5097421;23;20204;-91
2023/07/09 20:52:43;;;;;;;6.93;1.77;;;21.40;99.90;;;;;;5072818;23;20604;-91
2023/07/09 20:54:44;;;;;;;6.82;1.75;;;21.50;99.90;;;;;;5072474;23;20174;-91
2023/07/09 20:56:45;;;;;;;6.00;1.70;;;21.50;99.90;;;;;;5095813;23;20156;-93
2023/07/09 20:58:47;;;;;;;5.82;1.92;;;21.40;99.90;;;;;;5072164;23;20173;-89
2023/07/09 21:00:50;;;;;;;5.90;2.25;;;21.50;99.90;;;;;;5073770;23;20164;-91
2023/07/09 21:02:51;;;;;;;10.82;1.85;;;21.60;99.90;;;;;;5097687;23;20185;-92
2023/07/09 21:04:56;;;;;;;7.75;1.88;;;21.60;99.90;;;;;;5099296;23;20204;-91
2023/07/09 21:06:57;;;;;;;6.47;2.10;;;21.50;99.90;;;;;;5097199;23;20153;-91
2023/07/09 21:08:58;;;;;;;4.53;1.50;;;21.70;99.90;;;;;;5098672;23;20176;-90
2023/07/09 21:10:58;;;;;;;5.85;1.70;;;21.60;99.90;;;;;;5073673;23;20180;-92
2023/07/09 21:13:00;;;;;;;4.63;1.50;;;21.60;99.90;;;;;;5073110;23;20165;-93
2023/07/09 21:15:01;;;;;;;7.65;1.60;;;21.60;99.90;;;;;;5097756;23;20149;-94
2023/07/09 21:17:02;;;;;;;5.57;1.60;;;21.60;99.90;;;;;;5073916;23;20200;-91
2023/07/09 21:19:02;;;;;;;9.10;2.22;;;21.60;99.90;;;;;;5097837;23;20169;-92
2023/07/09 21:21:04;;;;;;;7.32;1.58;;;21.60;99.90;;;;;;5073461;23;20153;-92
2023/07/09 21:23:14;;;;;;;8.70;2.03;;;21.70;99.90;;;;;;5073110;23;20209;-91
2023/07/09 21:25:22;;;;;;;9.82;1.90;;;21.80;99.90;;;;;;5073154;23;20157;-91
2023/07/09 21:27:23;;;;;;;3.47;1.60;;;21.90;99.90;;;;;;5097476;23;20208;-91
2023/07/09 21:29:26;;;;;;;5.03;1.70;;;21.90;99.90;;;;;;5097298;23;20176;-90
2023/07/09 21:31:27;;;;;;;5.07;1.70;;;21.90;99.90;;;;;;5098370;23;20159;-91
2023/07/09 21:33:29;;;;;;;6.10;2.00;;;21.90;99.90;;;;;;5098086;23;20153;-93
2023/07/09 21:35:31;;;;;;;7.25;1.70;;;22.00;99.90;;;;;;5073674;23;20183;-93
2023/07/09 21:37:32;;;;;;;7.13;1.88;;;22.00;99.90;;;;;;5097838;23;20144;-92
2023/07/09 21:39:33;;;;;;;6.18;1.65;;;22.00;99.90;;;;;;5072697;23;20158;-91
2023/07/09 21:41:34;;;;;;;10.25;2.05;;;21.90;99.90;;;;;;5073194;23;20565;-92
2023/07/09 21:43:35;;;;;;;6.97;2.10;;;21.90;99.90;;;;;;5097344;23;20192;-91
2023/07/09 21:45:41;;;;;;;8.73;2.10;;;22.00;99.90;;;;;;5074533;23;20172;-92
2023/07/09 21:47:41;;;;;;;7.10;1.58;;;22.00;99.90;;;;;;5072177;23;20158;-93
2023/07/09 21:49:43;;;;;;;5.88;1.75;;;22.00;99.90;;;;;;5097307;23;20161;-90
2023/07/09 21:51:45;;;;;;;4.78;1.73;;;22.00;99.90;;;;;;5095691;23;20171;-92
2023/07/09 21:53:45;;;;;;;7.88;2.10;;;22.00;99.90;;;;;;5072549;23;20152;-91
2023/07/09 21:55:46;;;;;;;7.07;1.70;;;21.90;99.90;;;;;;5097985;23;20176;-90
2023/07/09 21:57:48;;;;;;;5.90;1.70;;;22.00;99.90;;;;;;5073791;23;20150;-92
2023/07/09 21:59:49;;;;;;;6.40;1.70;;;21.90;99.90;;;;;;5097102;23;20156;-93
2023/07/09 22:01:53;;;;;;;7.47;1.90;;;21.90;99.90;;;;;;5099542;23;20631;-93
2023/07/09 22:03:54;;;;;;;6.85;1.95;;;21.90;99.90;;;;;;5049464;23;20214;-91
2023/07/09 22:05:54;;;;;;;5.57;1.73;;;21.90;99.90;;;;;;5072601;23;20146;-92
2023/07/09 22:07:56;;;;;;;7.53;1.98;;;21.90;99.90;;;;;;5071602;23;20174;-91
2023/07/09 22:09:57;;;;;;;8.38;1.73;;;21.80;99.90;;;;;;5121083;23;20148;-92
2023/07/09 22:11:58;;;;;;;5.78;1.85;;;21.90;99.90;;;;;;5077107;23;20161;-91
2023/07/09 22:13:58;;;;;;;4.45;1.52;;;21.90;99.90;;;;;;5073720;23;20236;-91
2023/07/09 22:16:00;;;;;;;6.43;1.80;;;21.90;99.90;;;;;;5073240;23;20191;-92
2023/07/09 22:18:06;;;;;;;7.60;1.70;;;21.90;99.90;;;;;;5070526;23;20166;-92
2023/07/09 22:20:07;;;;;;;8.80;1.70;;;21.80;99.90;;;;;;5048411;23;20165;-92
2023/07/09 22:22:10;;;;;;;9.60;1.92;;;21.80;99.90;;;;;;5072413;23;20232;-90
2023/07/09 22:24:15;;;;;;;7.15;1.95;;;21.80;99.90;;;;;;5099698;23;20184;-91
2023/07/09 22:26:17;;;;;;;4.93;1.50;;;21.70;99.90;;;;;;5070966;23;20174;-92
2023/07/09 22:28:19;;;;;;;8.63;1.60;;;21.80;99.90;;;;;;5096632;23;20180;-91
2023/07/09 22:30:21;;;;;;;6.25;1.55;;;21.80;99.90;;;;;;5072425;23;20154;-91
2023/07/09 22:32:30;;;;;;;8.75;2.00;;;21.80;99.90;;;;;;5073713;23;20157;-91
2023/07/09 22:34:30;;;;;;;6.47;2.05;;;21.90;99.90;;;;;;5097109;23;20163;-91
2023/07/09 22:36:31;;;;;;;7.25;1.92;;;21.90;99.90;;;;;;5096241;23;20556;-91
2023/07/09 22:38:32;;;;;;;5.68;1.50;;;21.90;99.90;;;;;;5073284;23;20181;-90
2023/07/09 22:40:33;;;;;;;6.18;1.70;;;21.80;99.90;;;;;;5072086;23;20193;-91
2023/07/09 22:42:34;;;;;;;8.10;1.73;;;21.90;99.90;;;;;;5096208;23;20598;-91
2023/07/09 22:44:36;;;;;;;9.23;2.20;;;21.60;99.90;;;;;;5095919;23;20188;-90
2023/07/09 22:46:37;;;;;;;4.20;1.48;;;21.70;99.90;;;;;;5096482;23;20152;-91
2023/07/09 22:48:38;;;;;;;6.82;1.60;;;21.60;99.90;;;;;;5073340;23;20205;-92
2023/07/09 22:50:41;;;;;;;5.70;1.77;;;21.50;99.90;;;;;;5072944;23;20568;-91
2023/07/09 22:52:42;;;;;;;6.75;1.70;;;21.40;99.90;;;;;;5071777;23;20153;-93
2023/07/09 22:54:43;;;;;;;6.35;1.80;;;21.40;99.90;;;;;;5072999;23;20149;-92
2023/07/09 22:56:44;;;;;;;6.10;1.80;;;21.40;99.90;;;;;;5072880;23;20185;-91
2023/07/09 22:58:46;;;;;;;11.55;2.28;;;21.40;99.90;;;;;;5096363;23;20180;-91
2023/07/09 23:00:54;;;;;;;3.92;1.77;;;21.30;99.90;;;;;;5073640;23;20192;-92
2023/07/09 23:02:58;;;;;;;6.30;1.77;;;21.30;99.90;;;;;;5121312;23;20179;-92
2023/07/09 23:04:59;;;;;;;8.90;2.45;;;21.10;99.90;;;;;;5072309;23;20195;-91
2023/07/09 23:07:00;;;;;;;7.63;2.25;;;21.00;99.90;;;;;;5097026;23;20593;-92
2023/07/09 23:09:01;;;;;;;8.20;2.10;;;20.90;99.90;;;;;;5072257;23;20178;-92
2023/07/09 23:11:01;;;;;;;9.52;2.13;;;20.80;99.90;;;;;;5072313;23;20165;-91
2023/07/09 23:13:02;;;;;;;8.00;2.15;;;20.70;99.90;;;;;;5096438;23;20585;-91
2023/07/09 23:15:24;;;;;;;8.60;2.00;;;20.70;99.90;;;;;;5096000;23;20532;-92
2023/07/09 23:17:25;;;;;;;6.22;2.20;;;20.70;99.90;;;;;;5072788;23;20156;-91
2023/07/09 23:19:28;;;;;;;6.60;2.05;;;20.60;99.90;;;;;;5071948;23;20178;-91
2023/07/09 23:21:29;;;;;;;9.38;2.10;;;20.70;99.90;;;;;;5072374;23;20153;-91
2023/07/09 23:23:29;;;;;;;7.85;2.15;;;20.60;99.90;;;;;;5096769;23;20343;-90
2023/07/09 23:25:30;;;;;;;8.98;2.13;;;20.50;99.90;;;;;;5096455;23;20469;-91